sensor_id;sensor_type;location;lat;lon;timestamp;temperature;humidity
16283;DHT22;8249;48.708;9.030;2022-12-18T00:02:08;-9.90;99.90
16283;DHT22;8249;48.708;9.030;2022-12-18T00:04:37;-9.80;99.90
16283;DHT22;8249;48.708;9.030;2022-12-18T00:07:05;-9.80;99.90
16283;DHT22;8249;48.708;9.030;2022-12-18T00:09:32;-9.90;99.90
16283;DHT22;8249;48.708;9.030;2022-12-18T00:11:59;-9.90;99.90
16283;DHT22;8249;48.708;9.030;2022-12-18T00:14:26;-10.00;99.90
16283;DHT22;8249;48.708;9.030;2022-12-18T00:16:55;-10.00;99.90
16283;DHT22;8249;48.708;9.030;2022-12-18T00:19:24;-10.00;99.90
16283;DHT22;8249;48.708;9.030;2022-12-18T00:21:50;-10.00;99.90
16283;DHT22;8249;48.708;9.030;2022-12-18T00:24:17;-10.00;99.90
16283;DHT22;8249;48.708;9.030;2022-12-18T00:26:44;-10.00;99.90
16283;DHT22;8249;48.708;9.030;2022-12-18T00:29:12;-10.00;99.90
16283;DHT22;8249;48.708;9.030;2022-12-18T00:31:41;-10.00;99.90
16283;DHT22;8249;48.708;9.030;2022-12-18T00:34:11;-10.00;99.90
16283;DHT22;8249;48.708;9.030;2022-12-18T00:36:40;-10.10;99.90
16283;DHT22;8249;48.708;9.030;2022-12-18T00:39:07;-10.20;99.90
16283;DHT22;8249;48.708;9.030;2022-12-18T00:41:34;-10.20;99.90
16283;DHT22;8249;48.708;9.030;2022-12-18T00:44:19;-10.30;99.90
16283;DHT22;8249;48.708;9.030;2022-12-18T00:46:47;-10.20;99.90
16283;DHT22;8249;48.708;9.030;2022-12-18T00:49:17;-10.20;99.90
16283;DHT22;8249;48.708;9.030;2022-12-18T00:51:48;-10.20;99.90
16283;DHT22;8249;48.708;9.030;2022-12-18T00:54:16;-10.20;99.90
16283;DHT22;8249;48.708;9.030;2022-12-18T00:56:43;-10.30;99.90
16283;DHT22;8249;48.708;9.030;2022-12-18T00:59:10;-10.30;99.90
16283;DHT22;8249;48.708;9.030;2022-12-18T01:01:38;-10.40;99.90
16283;DHT22;8249;48.708;9.030;2022-12-18T01:04:05;-10.40;99.90
16283;DHT22;8249;48.708;9.030;2022-12-18T01:06:33;-10.40;99.90
16283;DHT22;8249;48.708;9.030;2022-12-18T01:09:01;-10.30;99.90
16283;DHT22;8249;48.708;9.030;2022-12-18T01:11:28;-10.40;99.90
16283;DHT22;8249;48.708;9.030;2022-12-18T01:13:55;-10.40;99.90
16283;DHT22;8249;48.708;9.030;2022-12-18T01:16:25;-10.40;99.90
16283;DHT22;8249;48.708;9.030;2022-12-18T01:18:52;-10.40;99.90
16283;DHT22;8249;48.708;9.030;2022-12-18T01:21:21;-10.40;99.90
16283;DHT22;8249;48.708;9.030;2022-12-18T01:23:52;-10.40;99.90
16283;DHT22;8249;48.708;9.030;2022-12-18T01:26:20;-10.40;99.90
16283;DHT22;8249;48.708;9.030;2022-12-18T01:28:47;-10.40;99.90
16283;DHT22;8249;48.708;9.030;2022-12-18T01:31:17;-10.40;99.90
16283;DHT22;8249;48.708;9.030;2022-12-18T01:33:45;-10.40;99.90
16283;DHT22;8249;48.708;9.030;2022-12-18T01:36:17;-10.40;99.90
16283;DHT22;8249;48.708;9.030;2022-12-18T01:38:45;-10.30;99.90
16283;DHT22;8249;48.708;9.030;2022-12-18T01:41:15;-10.30;99.90
16283;DHT22;8249;48.708;9.030;2022-12-18T01:43:49;-10.30;99.90
16283;DHT22;8249;48.708;9.030;2022-12-18T01:46:17;-10.30;99.90
16283;DHT22;8249;48.708;9.030;2022-12-18T01:48:47;-10.30;99.90
16283;DHT22;8249;48.708;9.030;2022-12-18T01:51:15;-10.30;99.90
16283;DHT22;8249;48.708;9.030;2022-12-18T01:53:44;-10.20;99.90
16283;DHT22;8249;48.708;9.030;2022-12-18T01:56:15;-10.20;99.90
16283;DHT22;8249;48.708;9.030;2022-12-18T01:58:48;-10.10;99.90
16283;DHT22;8249;48.708;9.030;2022-12-18T02:01:17;-10.00;99.90
16283;DHT22;8249;48.708;9.030;2022-12-18T02:03:44;-10.00;99.90
16283;DHT22;8249;48.708;9.030;2022-12-18T02:06:15;-9.90;99.90
16283;DHT22;8249;48.708;9.030;2022-12-18T02:08:58;-9.90;99.90
16283;DHT22;8249;48.708;9.030;2022-12-18T02:11:39;-9.90;99.90
16283;DHT22;8249;48.708;9.030;2022-12-18T02:14:18;-9.80;99.90
16283;DHT22;8249;48.708;9.030;2022-12-18T02:16:52;-9.80;99.90
16283;DHT22;8249;48.708;9.030;2022-12-18T02:19:36;-9.80;99.90
16283;DHT22;8249;48.708;9.030;2022-12-18T02:22:14;-9.80;99.90
16283;DHT22;8249;48.708;9.030;2022-12-18T02:24:56;-9.70;99.90
16283;DHT22;8249;48.708;9.030;2022-12-18T02:27:27;-9.60;99.90
16283;DHT22;8249;48.708;9.030;2022-12-18T02:29:57;-9.70;99.90
16283;DHT22;8249;48.708;9.030;2022-12-18T02:32:33;-9.60;99.90
16283;DHT22;8249;48.708;9.030;2022-12-18T02:35:05;-9.60;99.90
16283;DHT22;8249;48.708;9.030;2022-12-18T02:37:34;-9.70;99.90
16283;DHT22;8249;48.708;9.030;2022-12-18T02:40:06;-9.70;99.90
16283;DHT22;8249;48.708;9.030;2022-12-18T02:42:36;-9.80;99.90
16283;DHT22;8249;48.708;9.030;2022-12-18T02:45:06;-9.80;99.90
16283;DHT22;8249;48.708;9.030;2022-12-18T02:47:38;-9.80;99.90
16283;DHT22;8249;48.708;9.030;2022-12-18T02:50:13;-9.80;99.90
16283;DHT22;8249;48.708;9.030;2022-12-18T02:52:49;-9.90;99.90
16283;DHT22;8249;48.708;9.030;2022-12-18T02:55:27;-9.90;99.90
16283;DHT22;8249;48.708;9.030;2022-12-18T02:58:05;-9.90;99.90
16283;DHT22;8249;48.708;9.030;2022-12-18T03:00:41;-9.90;99.90
16283;DHT22;8249;48.708;9.030;2022-12-18T03:03:11;-9.90;99.90
16283;DHT22;8249;48.708;9.030;2022-12-18T03:05:44;-9.90;99.90
16283;DHT22;8249;48.708;9.030;2022-12-18T03:08:20;-9.90;99.90
16283;DHT22;8249;48.708;9.030;2022-12-18T03:10:53;-9.80;99.90
16283;DHT22;8249;48.708;9.030;2022-12-18T03:13:25;-9.80;99.90
16283;DHT22;8249;48.708;9.030;2022-12-18T03:15:56;-9.80;99.90
16283;DHT22;8249;48.708;9.030;2022-12-18T03:18:26;-9.60;99.90
16283;DHT22;8249;48.708;9.030;2022-12-18T03:20:57;-9.60;99.90
16283;DHT22;8249;48.708;9.030;2022-12-18T03:23:29;-9.60;99.90
16283;DHT22;8249;48.708;9.030;2022-12-18T03:26:01;-9.60;99.90
16283;DHT22;8249;48.708;9.030;2022-12-18T03:28:34;-9.50;99.90
16283;DHT22;8249;48.708;9.030;2022-12-18T03:31:05;-9.50;99.90
16283;DHT22;8249;48.708;9.030;2022-12-18T03:33:38;-9.50;99.90
16283;DHT22;8249;48.708;9.030;2022-12-18T03:36:07;-9.40;99.90
16283;DHT22;8249;48.708;9.030;2022-12-18T03:38:35;-9.40;99.90
16283;DHT22;8249;48.708;9.030;2022-12-18T03:41:07;-9.40;99.90
16283;DHT22;8249;48.708;9.030;2022-12-18T03:43:54;-9.40;99.90
16283;DHT22;8249;48.708;9.030;2022-12-18T03:46:28;-9.40;99.90
16283;DHT22;8249;48.708;9.030;2022-12-18T03:49:01;-9.40;99.90
16283;DHT22;8249;48.708;9.030;2022-12-18T03:51:36;-9.40;99.90
16283;DHT22;8249;48.708;9.030;2022-12-18T03:54:06;-9.40;99.90
16283;DHT22;8249;48.708;9.030;2022-12-18T03:56:43;-9.40;99.90
16283;DHT22;8249;48.708;9.030;2022-12-18T03:59:15;-9.40;99.90
16283;DHT22;8249;48.708;9.030;2022-12-18T04:01:47;-9.40;99.90
16283;DHT22;8249;48.708;9.030;2022-12-18T04:04:18;-9.40;99.90
16283;DHT22;8249;48.708;9.030;2022-12-18T04:06:47;-9.50;99.90
16283;DHT22;8249;48.708;9.030;2022-12-18T04:09:16;-9.50;99.90
16283;DHT22;8249;48.708;9.030;2022-12-18T04:11:46;-9.50;99.90
16283;DHT22;8249;48.708;9.030;2022-12-18T04:14:16;-9.60;99.90
16283;DHT22;8249;48.708;9.030;2022-12-18T04:16:43;-9.60;99.90
16283;DHT22;8249;48.708;9.030;2022-12-18T04:19:14;-9.60;99.90
16283;DHT22;8249;48.708;9.030;2022-12-18T04:21:43;-9.60;99.90
16283;DHT22;8249;48.708;9.030;2022-12-18T04:24:11;-9.70;99.90
16283;DHT22;8249;48.708;9.030;2022-12-18T04:26:45;-9.70;99.90
16283;DHT22;8249;48.708;9.030;2022-12-18T04:29:17;-9.70;99.90
16283;DHT22;8249;48.708;9.030;2022-12-18T04:31:44;-9.70;99.90
16283;DHT22;8249;48.708;9.030;2022-12-18T04:34:11;-9.70;99.90
16283;DHT22;8249;48.708;9.030;2022-12-18T04:36:44;-9.70;99.90
16283;DHT22;8249;48.708;9.030;2022-12-18T04:39:12;-9.70;99.90
16283;DHT22;8249;48.708;9.030;2022-12-18T04:41:40;-9.70;99.90
16283;DHT22;8249;48.708;9.030;2022-12-18T04:44:08;-9.70;99.90
16283;DHT22;8249;48.708;9.030;2022-12-18T04:46:36;-9.70;99.90
16283;DHT22;8249;48.708;9.030;2022-12-18T04:49:03;-9.70;99.90
16283;DHT22;8249;48.708;9.030;2022-12-18T04:51:30;-9.70;99.90
16283;DHT22;8249;48.708;9.030;2022-12-18T04:53:58;-9.70;99.90
16283;DHT22;8249;48.708;9.030;2022-12-18T04:56:25;-9.70;99.90
16283;DHT22;8249;48.708;9.030;2022-12-18T04:58:52;-9.70;99.90
16283;DHT22;8249;48.708;9.030;2022-12-18T05:01:19;-9.70;99.90
16283;DHT22;8249;48.708;9.030;2022-12-18T05:03:47;-9.70;99.90
16283;DHT22;8249;48.708;9.030;2022-12-18T05:06:14;-9.80;99.90
16283;DHT22;8249;48.708;9.030;2022-12-18T05:08:41;-9.80;99.90
16283;DHT22;8249;48.708;9.030;2022-12-18T05:11:10;-9.80;99.90
16283;DHT22;8249;48.708;9.030;2022-12-18T05:13:37;-9.90;99.90
16283;DHT22;8249;48.708;9.030;2022-12-18T05:16:05;-9.90;99.90
16283;DHT22;8249;48.708;9.030;2022-12-18T05:18:32;-9.90;99.90
16283;DHT22;8249;48.708;9.030;2022-12-18T05:21:01;-9.90;99.90
16283;DHT22;8249;48.708;9.030;2022-12-18T05:23:28;-9.80;99.90
16283;DHT22;8249;48.708;9.030;2022-12-18T05:25:57;-9.90;99.90
16283;DHT22;8249;48.708;9.030;2022-12-18T05:28:26;-9.80;99.90
16283;DHT22;8249;48.708;9.030;2022-12-18T05:30:55;-9.80;99.90
16283;DHT22;8249;48.708;9.030;2022-12-18T05:33:23;-9.90;99.90
16283;DHT22;8249;48.708;9.030;2022-12-18T05:35:51;-9.90;99.90
16283;DHT22;8249;48.708;9.030;2022-12-18T05:38:20;-9.90;99.90
16283;DHT22;8249;48.708;9.030;2022-12-18T05:40:48;-9.90;99.90
16283;DHT22;8249;48.708;9.030;2022-12-18T05:43:15;-9.90;99.90
16283;DHT22;8249;48.708;9.030;2022-12-18T05:45:42;-9.80;99.90
16283;DHT22;8249;48.708;9.030;2022-12-18T05:48:09;-9.80;99.90
16283;DHT22;8249;48.708;9.030;2022-12-18T05:50:41;-9.80;99.90
16283;DHT22;8249;48.708;9.030;2022-12-18T05:53:09;-9.90;99.90
16283;DHT22;8249;48.708;9.030;2022-12-18T05:55:39;-9.90;99.90
16283;DHT22;8249;48.708;9.030;2022-12-18T05:58:07;-9.90;99.90
16283;DHT22;8249;48.708;9.030;2022-12-18T06:00:36;-9.80;99.90
16283;DHT22;8249;48.708;9.030;2022-12-18T06:03:05;-9.70;99.90
16283;DHT22;8249;48.708;9.030;2022-12-18T06:05:34;-9.60;99.90
16283;DHT22;8249;48.708;9.030;2022-12-18T06:08:01;-9.50;99.90
16283;DHT22;8249;48.708;9.030;2022-12-18T06:10:28;-9.40;99.90
16283;DHT22;8249;48.708;9.030;2022-12-18T06:12:57;-9.30;99.90
16283;DHT22;8249;48.708;9.030;2022-12-18T06:15:24;-9.30;99.90
16283;DHT22;8249;48.708;9.030;2022-12-18T06:17:51;-9.30;99.90
16283;DHT22;8249;48.708;9.030;2022-12-18T06:20:18;-9.20;99.90
16283;DHT22;8249;48.708;9.030;2022-12-18T06:22:45;-9.30;99.90
16283;DHT22;8249;48.708;9.030;2022-12-18T06:25:12;-9.20;99.90
16283;DHT22;8249;48.708;9.030;2022-12-18T06:27:39;-9.20;99.90
16283;DHT22;8249;48.708;9.030;2022-12-18T06:30:09;-9.40;99.90
16283;DHT22;8249;48.708;9.030;2022-12-18T06:32:36;-9.50;99.90
16283;DHT22;8249;48.708;9.030;2022-12-18T06:35:04;-9.70;99.90
16283;DHT22;8249;48.708;9.030;2022-12-18T06:37:31;-9.80;99.90
16283;DHT22;8249;48.708;9.030;2022-12-18T06:39:58;-9.90;99.90
16283;DHT22;8249;48.708;9.030;2022-12-18T06:42:26;-10.00;99.90
16283;DHT22;8249;48.708;9.030;2022-12-18T06:44:53;-10.10;99.90
16283;DHT22;8249;48.708;9.030;2022-12-18T06:47:21;-10.10;99.90
16283;DHT22;8249;48.708;9.030;2022-12-18T06:49:49;-10.10;99.90
16283;DHT22;8249;48.708;9.030;2022-12-18T06:52:16;-10.10;99.90
16283;DHT22;8249;48.708;9.030;2022-12-18T06:54:43;-10.20;99.90
16283;DHT22;8249;48.708;9.030;2022-12-18T06:57:10;-10.20;99.90
16283;DHT22;8249;48.708;9.030;2022-12-18T06:59:37;-10.20;99.90
16283;DHT22;8249;48.708;9.030;2022-12-18T07:02:04;-10.30;99.90
16283;DHT22;8249;48.708;9.030;2022-12-18T07:04:32;-10.30;99.90
16283;DHT22;8249;48.708;9.030;2022-12-18T07:06:59;-10.30;99.90
16283;DHT22;8249;48.708;9.030;2022-12-18T07:09:26;-10.30;99.90
16283;DHT22;8249;48.708;9.030;2022-12-18T07:11:54;-10.30;99.90
16283;DHT22;8249;48.708;9.030;2022-12-18T07:14:21;-10.30;99.90
16283;DHT22;8249;48.708;9.030;2022-12-18T07:16:48;-10.30;99.90
16283;DHT22;8249;48.708;9.030;2022-12-18T07:19:15;-10.30;99.90
16283;DHT22;8249;48.708;9.030;2022-12-18T07:21:43;-10.20;99.90
16283;DHT22;8249;48.708;9.030;2022-12-18T07:24:11;-10.20;99.90
16283;DHT22;8249;48.708;9.030;2022-12-18T07:26:38;-10.20;99.90
16283;DHT22;8249;48.708;9.030;2022-12-18T07:29:05;-10.10;99.90
16283;DHT22;8249;48.708;9.030;2022-12-18T07:31:32;-10.10;99.90
16283;DHT22;8249;48.708;9.030;2022-12-18T07:33:59;-10.00;99.90
16283;DHT22;8249;48.708;9.030;2022-12-18T07:36:26;-10.00;99.90
16283;DHT22;8249;48.708;9.030;2022-12-18T07:38:55;-9.90;99.90
16283;DHT22;8249;48.708;9.030;2022-12-18T07:41:22;-9.80;99.90
16283;DHT22;8249;48.708;9.030;2022-12-18T07:43:49;-9.80;99.90
16283;DHT22;8249;48.708;9.030;2022-12-18T07:46:16;-9.70;99.90
16283;DHT22;8249;48.708;9.030;2022-12-18T07:48:44;-9.60;99.90
16283;DHT22;8249;48.708;9.030;2022-12-18T07:51:11;-9.60;99.90
16283;DHT22;8249;48.708;9.030;2022-12-18T07:53:38;-9.50;99.90
16283;DHT22;8249;48.708;9.030;2022-12-18T07:56:08;-9.40;99.90
16283;DHT22;8249;48.708;9.030;2022-12-18T07:58:36;-9.30;99.90
16283;DHT22;8249;48.708;9.030;2022-12-18T08:01:04;-9.20;99.90
16283;DHT22;8249;48.708;9.030;2022-12-18T08:03:31;-9.10;99.90
16283;DHT22;8249;48.708;9.030;2022-12-18T08:05:59;-9.00;99.90
16283;DHT22;8249;48.708;9.030;2022-12-18T08:08:27;-8.80;99.90
16283;DHT22;8249;48.708;9.030;2022-12-18T08:10:54;-8.70;99.90
16283;DHT22;8249;48.708;9.030;2022-12-18T08:13:23;-8.50;99.90
16283;DHT22;8249;48.708;9.030;2022-12-18T08:15:56;-8.30;99.90
16283;DHT22;8249;48.708;9.030;2022-12-18T08:18:23;-8.00;99.90
16283;DHT22;8249;48.708;9.030;2022-12-18T08:20:51;-7.70;99.90
16283;DHT22;8249;48.708;9.030;2022-12-18T08:23:18;-7.20;99.90
16283;DHT22;8249;48.708;9.030;2022-12-18T08:25:45;-6.60;99.90
16283;DHT22;8249;48.708;9.030;2022-12-18T08:28:12;-6.10;99.90
16283;DHT22;8249;48.708;9.030;2022-12-18T08:30:43;-5.60;99.90
16283;DHT22;8249;48.708;9.030;2022-12-18T08:33:10;-5.00;99.90
16283;DHT22;8249;48.708;9.030;2022-12-18T08:35:37;-4.70;99.90
16283;DHT22;8249;48.708;9.030;2022-12-18T08:38:04;-4.40;99.90
16283;DHT22;8249;48.708;9.030;2022-12-18T08:40:31;-3.80;99.90
16283;DHT22;8249;48.708;9.030;2022-12-18T08:42:58;-3.60;99.90
16283;DHT22;8249;48.708;9.030;2022-12-18T08:45:44;-3.20;99.90
16283;DHT22;8249;48.708;9.030;2022-12-18T08:48:11;-2.70;99.90
16283;DHT22;8249;48.708;9.030;2022-12-18T08:50:38;-2.20;99.90
16283;DHT22;8249;48.708;9.030;2022-12-18T08:53:05;-2.30;99.90
16283;DHT22;8249;48.708;9.030;2022-12-18T08:55:32;-2.10;99.90
16283;DHT22;8249;48.708;9.030;2022-12-18T08:57:59;-1.50;99.90
16283;DHT22;8249;48.708;9.030;2022-12-18T09:00:26;-1.00;99.90
16283;DHT22;8249;48.708;9.030;2022-12-18T09:02:55;-0.30;99.90
16283;DHT22;8249;48.708;9.030;2022-12-18T09:05:22;0.00;99.90
16283;DHT22;8249;48.708;9.030;2022-12-18T09:07:49;0.40;99.90
16283;DHT22;8249;48.708;9.030;2022-12-18T09:10:16;0.90;99.90
16283;DHT22;8249;48.708;9.030;2022-12-18T09:12:43;1.20;99.90
16283;DHT22;8249;48.708;9.030;2022-12-18T09:15:10;1.50;99.90
16283;DHT22;8249;48.708;9.030;2022-12-18T09:17:37;1.50;99.90
16283;DHT22;8249;48.708;9.030;2022-12-18T09:20:07;2.10;99.90
16283;DHT22;8249;48.708;9.030;2022-12-18T09:22:34;2.20;99.90
16283;DHT22;8249;48.708;9.030;2022-12-18T09:25:02;2.20;99.90
16283;DHT22;8249;48.708;9.030;2022-12-18T09:27:33;2.40;99.90
16283;DHT22;8249;48.708;9.030;2022-12-18T09:30:01;2.50;99.90
16283;DHT22;8249;48.708;9.030;2022-12-18T09:32:28;3.10;99.90
16283;DHT22;8249;48.708;9.030;2022-12-18T09:34:59;3.00;99.90
16283;DHT22;8249;48.708;9.030;2022-12-18T09:37:28;2.80;99.90
16283;DHT22;8249;48.708;9.030;2022-12-18T09:39:55;2.90;99.90
16283;DHT22;8249;48.708;9.030;2022-12-18T09:42:22;2.70;99.90
16283;DHT22;8249;48.708;9.030;2022-12-18T09:44:50;2.40;99.90
16283;DHT22;8249;48.708;9.030;2022-12-18T09:47:20;2.40;99.90
16283;DHT22;8249;48.708;9.030;2022-12-18T09:49:52;2.90;99.90
16283;DHT22;8249;48.708;9.030;2022-12-18T09:52:25;3.10;99.90
16283;DHT22;8249;48.708;9.030;2022-12-18T09:54:58;3.60;99.90
16283;DHT22;8249;48.708;9.030;2022-12-18T09:57:30;3.80;99.90
16283;DHT22;8249;48.708;9.030;2022-12-18T10:00:04;4.30;99.90
16283;DHT22;8249;48.708;9.030;2022-12-18T10:02:37;4.40;99.90
16283;DHT22;8249;48.708;9.030;2022-12-18T10:05:06;4.30;99.90
16283;DHT22;8249;48.708;9.030;2022-12-18T10:07:47;4.20;99.90
16283;DHT22;8249;48.708;9.030;2022-12-18T10:10:27;4.50;99.90
16283;DHT22;8249;48.708;9.030;2022-12-18T10:13:03;4.30;99.90
16283;DHT22;8249;48.708;9.030;2022-12-18T10:15:37;3.90;99.90
16283;DHT22;8249;48.708;9.030;2022-12-18T10:18:22;3.90;99.90
16283;DHT22;8249;48.708;9.030;2022-12-18T10:20:53;3.70;99.90
16283;DHT22;8249;48.708;9.030;2022-12-18T10:23:26;3.80;99.90
16283;DHT22;8249;48.708;9.030;2022-12-18T10:26:00;3.50;99.90
16283;DHT22;8249;48.708;9.030;2022-12-18T10:28:29;3.70;99.90
16283;DHT22;8249;48.708;9.030;2022-12-18T10:30:57;4.10;99.90
16283;DHT22;8249;48.708;9.030;2022-12-18T10:33:28;4.40;99.90
16283;DHT22;8249;48.708;9.030;2022-12-18T10:35:57;4.70;99.90
16283;DHT22;8249;48.708;9.030;2022-12-18T10:38:28;4.60;99.90
16283;DHT22;8249;48.708;9.030;2022-12-18T10:40:58;5.30;99.90
16283;DHT22;8249;48.708;9.030;2022-12-18T10:43:27;5.10;99.90
16283;DHT22;8249;48.708;9.030;2022-12-18T10:46:11;5.00;99.90
16283;DHT22;8249;48.708;9.030;2022-12-18T10:48:50;5.00;99.90
16283;DHT22;8249;48.708;9.030;2022-12-18T10:51:23;5.20;99.90
16283;DHT22;8249;48.708;9.030;2022-12-18T10:53:59;5.10;99.90
16283;DHT22;8249;48.708;9.030;2022-12-18T10:56:30;4.90;99.90
16283;DHT22;8249;48.708;9.030;2022-12-18T10:58:59;5.20;99.90
16283;DHT22;8249;48.708;9.030;2022-12-18T11:01:27;5.30;99.90
16283;DHT22;8249;48.708;9.030;2022-12-18T11:04:01;5.70;99.90
16283;DHT22;8249;48.708;9.030;2022-12-18T11:06:28;5.50;99.90
16283;DHT22;8249;48.708;9.030;2022-12-18T11:08:59;5.50;99.90
16283;DHT22;8249;48.708;9.030;2022-12-18T11:11:27;5.40;99.90
16283;DHT22;8249;48.708;9.030;2022-12-18T11:14:05;5.80;99.90
16283;DHT22;8249;48.708;9.030;2022-12-18T11:16:35;5.90;99.90
16283;DHT22;8249;48.708;9.030;2022-12-18T11:19:19;6.20;99.90
16283;DHT22;8249;48.708;9.030;2022-12-18T11:21:48;6.70;99.90
16283;DHT22;8249;48.708;9.030;2022-12-18T11:24:23;7.40;99.90
16283;DHT22;8249;48.708;9.030;2022-12-18T11:26:51;6.90;99.90
16283;DHT22;8249;48.708;9.030;2022-12-18T11:29:30;7.60;99.90
16283;DHT22;8249;48.708;9.030;2022-12-18T11:35:15;8.10;99.90
16283;DHT22;8249;48.708;9.030;2022-12-18T11:37:46;8.10;99.90
16283;DHT22;8249;48.708;9.030;2022-12-18T11:40:18;7.90;99.40
16283;DHT22;8249;48.708;9.030;2022-12-18T11:42:51;7.40;99.90
16283;DHT22;8249;48.708;9.030;2022-12-18T11:45:28;7.90;99.90
16283;DHT22;8249;48.708;9.030;2022-12-18T11:48:03;7.90;99.50
16283;DHT22;8249;48.708;9.030;2022-12-18T11:50:34;7.90;99.40
16283;DHT22;8249;48.708;9.030;2022-12-18T11:53:04;7.60;99.30
16283;DHT22;8249;48.708;9.030;2022-12-18T11:55:41;8.00;99.50
16283;DHT22;8249;48.708;9.030;2022-12-18T11:58:18;8.00;99.00
16283;DHT22;8249;48.708;9.030;2022-12-18T12:00:56;7.50;99.60
16283;DHT22;8249;48.708;9.030;2022-12-18T12:03:45;7.50;99.30
16283;DHT22;8249;48.708;9.030;2022-12-18T12:06:21;7.00;99.20
16283;DHT22;8249;48.708;9.030;2022-12-18T12:09:00;6.60;99.60
16283;DHT22;8249;48.708;9.030;2022-12-18T12:11:39;6.50;99.90
16283;DHT22;8249;48.708;9.030;2022-12-18T12:14:32;6.30;99.90
16283;DHT22;8249;48.708;9.030;2022-12-18T12:17:09;5.70;99.90
16283;DHT22;8249;48.708;9.030;2022-12-18T12:19:46;5.20;99.90
16283;DHT22;8249;48.708;9.030;2022-12-18T12:22:22;4.80;99.90
16283;DHT22;8249;48.708;9.030;2022-12-18T12:25:00;4.60;99.90
16283;DHT22;8249;48.708;9.030;2022-12-18T12:27:36;4.00;99.90
16283;DHT22;8249;48.708;9.030;2022-12-18T12:30:07;3.60;99.90
16283;DHT22;8249;48.708;9.030;2022-12-18T12:32:48;3.60;99.90
16283;DHT22;8249;48.708;9.030;2022-12-18T12:35:27;3.40;99.90
16283;DHT22;8249;48.708;9.030;2022-12-18T12:38:04;3.50;99.90
16283;DHT22;8249;48.708;9.030;2022-12-18T12:40:35;3.50;99.90
16283;DHT22;8249;48.708;9.030;2022-12-18T12:43:16;3.40;99.90
16283;DHT22;8249;48.708;9.030;2022-12-18T12:45:48;3.50;99.90
16283;DHT22;8249;48.708;9.030;2022-12-18T12:48:23;3.50;99.90
16283;DHT22;8249;48.708;9.030;2022-12-18T12:50:52;3.10;99.90
16283;DHT22;8249;48.708;9.030;2022-12-18T12:53:28;3.00;99.90
16283;DHT22;8249;48.708;9.030;2022-12-18T12:55:57;3.00;99.90
16283;DHT22;8249;48.708;9.030;2022-12-18T12:58:31;2.60;99.90
16283;DHT22;8249;48.708;9.030;2022-12-18T13:01:08;2.70;99.90
16283;DHT22;8249;48.708;9.030;2022-12-18T13:03:45;2.60;99.90
16283;DHT22;8249;48.708;9.030;2022-12-18T13:06:19;2.70;99.90
16283;DHT22;8249;48.708;9.030;2022-12-18T13:08:55;2.70;99.90
16283;DHT22;8249;48.708;9.030;2022-12-18T13:11:43;2.90;99.90
16283;DHT22;8249;48.708;9.030;2022-12-18T13:14:38;3.30;99.90
16283;DHT22;8249;48.708;9.030;2022-12-18T13:17:29;3.60;99.90
16283;DHT22;8249;48.708;9.030;2022-12-18T13:20:06;3.40;99.90
16283;DHT22;8249;48.708;9.030;2022-12-18T13:22:35;3.20;99.90
16283;DHT22;8249;48.708;9.030;2022-12-18T13:25:32;3.30;99.90
16283;DHT22;8249;48.708;9.030;2022-12-18T13:28:10;3.30;99.90
16283;DHT22;8249;48.708;9.030;2022-12-18T13:30:52;2.70;99.90
16283;DHT22;8249;48.708;9.030;2022-12-18T13:33:41;2.60;99.90
16283;DHT22;8249;48.708;9.030;2022-12-18T13:36:30;2.30;99.90
16283;DHT22;8249;48.708;9.030;2022-12-18T13:39:21;2.10;99.90
16283;DHT22;8249;48.708;9.030;2022-12-18T13:41:51;2.00;99.90
16283;DHT22;8249;48.708;9.030;2022-12-18T13:44:31;2.10;99.90
16283;DHT22;8249;48.708;9.030;2022-12-18T13:46:59;2.10;99.90
16283;DHT22;8249;48.708;9.030;2022-12-18T13:49:31;2.20;99.90
16283;DHT22;8249;48.708;9.030;2022-12-18T13:52:03;2.20;99.90
16283;DHT22;8249;48.708;9.030;2022-12-18T13:54:42;2.10;99.90
16283;DHT22;8249;48.708;9.030;2022-12-18T13:57:26;2.10;99.90
16283;DHT22;8249;48.708;9.030;2022-12-18T13:59:54;2.00;99.90
16283;DHT22;8249;48.708;9.030;2022-12-18T14:02:23;2.00;99.90
16283;DHT22;8249;48.708;9.030;2022-12-18T14:04:52;2.00;99.90
16283;DHT22;8249;48.708;9.030;2022-12-18T14:07:21;1.60;99.90
16283;DHT22;8249;48.708;9.030;2022-12-18T14:09:51;1.20;99.90
16283;DHT22;8249;48.708;9.030;2022-12-18T14:12:21;1.10;99.90
16283;DHT22;8249;48.708;9.030;2022-12-18T14:15:20;1.00;99.90
16283;DHT22;8249;48.708;9.030;2022-12-18T14:17:50;1.00;99.90
16283;DHT22;8249;48.708;9.030;2022-12-18T14:20:17;0.70;99.90
16283;DHT22;8249;48.708;9.030;2022-12-18T14:22:46;0.60;99.90
16283;DHT22;8249;48.708;9.030;2022-12-18T14:25:17;0.40;99.90
16283;DHT22;8249;48.708;9.030;2022-12-18T14:27:47;0.60;99.90
16283;DHT22;8249;48.708;9.030;2022-12-18T14:30:27;0.30;99.90
16283;DHT22;8249;48.708;9.030;2022-12-18T14:33:02;0.10;99.90
16283;DHT22;8249;48.708;9.030;2022-12-18T14:35:30;0.00;99.90
16283;DHT22;8249;48.708;9.030;2022-12-18T14:41:44;-0.40;99.90
16283;DHT22;8249;48.708;9.030;2022-12-18T14:44:12;-0.50;99.90
16283;DHT22;8249;48.708;9.030;2022-12-18T14:46:45;-0.50;99.90
16283;DHT22;8249;48.708;9.030;2022-12-18T14:49:21;-0.70;99.90
16283;DHT22;8249;48.708;9.030;2022-12-18T14:51:52;-0.80;99.90
16283;DHT22;8249;48.708;9.030;2022-12-18T14:54:21;-0.80;99.90
16283;DHT22;8249;48.708;9.030;2022-12-18T14:56:50;-0.80;99.90
16283;DHT22;8249;48.708;9.030;2022-12-18T14:59:24;-1.00;99.90
16283;DHT22;8249;48.708;9.030;2022-12-18T15:02:01;-1.10;99.90
16283;DHT22;8249;48.708;9.030;2022-12-18T15:04:30;-1.20;99.90
16283;DHT22;8249;48.708;9.030;2022-12-18T15:07:06;-1.20;99.90
16283;DHT22;8249;48.708;9.030;2022-12-18T15:09:34;-1.30;99.90
16283;DHT22;8249;48.708;9.030;2022-12-18T15:12:02;-1.40;99.90
16283;DHT22;8249;48.708;9.030;2022-12-18T15:14:44;-1.40;99.90
16283;DHT22;8249;48.708;9.030;2022-12-18T15:17:18;-1.50;99.90
16283;DHT22;8249;48.708;9.030;2022-12-18T15:19:47;-1.60;99.90
16283;DHT22;8249;48.708;9.030;2022-12-18T15:22:20;-1.80;99.90
16283;DHT22;8249;48.708;9.030;2022-12-18T15:24:48;-1.80;99.90
16283;DHT22;8249;48.708;9.030;2022-12-18T15:27:30;-1.90;99.90
16283;DHT22;8249;48.708;9.030;2022-12-18T15:30:19;-2.00;99.90
16283;DHT22;8249;48.708;9.030;2022-12-18T15:32:49;-2.10;99.90
16283;DHT22;8249;48.708;9.030;2022-12-18T15:35:18;-2.10;99.90
16283;DHT22;8249;48.708;9.030;2022-12-18T15:37:46;-2.20;99.90
16283;DHT22;8249;48.708;9.030;2022-12-18T15:40:15;-2.20;99.90
16283;DHT22;8249;48.708;9.030;2022-12-18T15:42:42;-2.30;99.90
16283;DHT22;8249;48.708;9.030;2022-12-18T15:45:28;-2.40;99.90
16283;DHT22;8249;48.708;9.030;2022-12-18T15:47:57;-2.40;99.90
16283;DHT22;8249;48.708;9.030;2022-12-18T15:50:24;-2.50;99.90
16283;DHT22;8249;48.708;9.030;2022-12-18T15:52:53;-2.50;99.90
16283;DHT22;8249;48.708;9.030;2022-12-18T15:55:22;-2.50;99.90
16283;DHT22;8249;48.708;9.030;2022-12-18T15:58:08;-2.60;99.90
16283;DHT22;8249;48.708;9.030;2022-12-18T16:00:36;-2.70;99.90
16283;DHT22;8249;48.708;9.030;2022-12-18T16:03:05;-2.70;99.90
16283;DHT22;8249;48.708;9.030;2022-12-18T16:05:33;-2.70;99.90
16283;DHT22;8249;48.708;9.030;2022-12-18T16:08:00;-2.70;99.90
16283;DHT22;8249;48.708;9.030;2022-12-18T16:10:28;-2.70;99.90
16283;DHT22;8249;48.708;9.030;2022-12-18T16:12:55;-2.80;99.90
16283;DHT22;8249;48.708;9.030;2022-12-18T16:15:22;-2.80;99.90
16283;DHT22;8249;48.708;9.030;2022-12-18T16:17:49;-2.80;99.90
16283;DHT22;8249;48.708;9.030;2022-12-18T16:20:20;-2.90;99.90